首页
METAR-TAF:

METAR-TAF

机场 :

兰辛首都地区国际机场

兰辛, 密歇根州, 美国

纬度: 42-46-49N, 经度: 084-34-44W, 海拔: 262米

当前天气观测

该预报发布于56分钟前的01:53 UTC
静风
温度 22°C
湿度 60%
气压 1019 hPa
能見度: 16.1公里
天空无云

METAR: KLAN 270153Z 00000KT 10SM CLR 22/14 A3010 RMK AO2 SLP189 T02170144

时间: 22:49 (02:49 UTC)

预报

该预报发布于3小时和11分钟前的23:38 UTC
预报有效从27日的 00点(UTC)到 27日的 24点(UTC)
风速8节,风向西转西北
能見度: 10公里
多云层高于25000英尺
从 27日的 0300点(UTC)
风速3节,风向多变
能見度: 10公里
多云层高于25000英尺
从 27日的 1500点(UTC)
风速5节,风向
能見度: 10公里
多云层高于4000英尺
从 27日的 2000点(UTC)
风速7节,风向南转西南
能見度: 10公里
多云层高于5000英尺, 积雨云.
附近有雷暴

TAF: KLAN 262338Z 2700/2724 29008KT P6SM BKN250 FM270300 VRB03KT P6SM BKN250 FM271500 19005KT P6SM BKN040 FM272000 21007KT P6SM VCTS BKN050CB

超过4000个机场的气象观测和天气预报(METAR&TAF报告)。

可查询的气象台以黄色和红色小点在地图上表示。

将鼠标移到小点上方,可查看气象台名称。

然后点击查看天气观测和预报。

如需切换地图:点击带黑十字的绿色按钮放大地图;点击带横线的绿色按钮缩小地图;或者点击绿色箭头查看邻近地区的地图。


METAR-TAF: